sensor_id;sensor_type;location;lat;lon;timestamp;pressure;altitude;pressure_sealevel;temperature;humidity
44751;BME280;30477;48.224;11.470;2023-02-23T00:01:55;95693.03;;;7.71;63.37
44751;BME280;30477;48.224;11.470;2023-02-23T00:04:22;95690.19;;;7.75;63.59
44751;BME280;30477;48.224;11.470;2023-02-23T00:06:47;95685.31;;;7.71;63.69
44751;BME280;30477;48.224;11.470;2023-02-23T00:09:13;95693.97;;;7.61;64.36
44751;BME280;30477;48.224;11.470;2023-02-23T00:11:51;95693.00;;;7.62;64.53
44751;BME280;30477;48.224;11.470;2023-02-23T00:14:17;95688.13;;;7.68;64.83
44751;BME280;30477;48.224;11.470;2023-02-23T00:16:43;95689.78;;;7.69;64.73
44751;BME280;30477;48.224;11.470;2023-02-23T00:19:11;95686.53;;;7.67;64.86
44751;BME280;30477;48.224;11.470;2023-02-23T00:21:39;95694.69;;;7.82;65.18
44751;BME280;30477;48.224;11.470;2023-02-23T00:24:10;95688.31;;;7.86;64.76
44751;BME280;30477;48.224;11.470;2023-02-23T00:26:38;95684.81;;;7.87;64.61
44751;BME280;30477;48.224;11.470;2023-02-23T00:29:16;95691.56;;;7.79;64.70
44751;BME280;30477;48.224;11.470;2023-02-23T00:31:45;95691.25;;;7.62;65.11
44751;BME280;30477;48.224;11.470;2023-02-23T00:34:13;95690.47;;;7.71;65.29
44751;BME280;30477;48.224;11.470;2023-02-23T00:36:39;95696.06;;;7.86;65.14
44751;BME280;30477;48.224;11.470;2023-02-23T00:39:07;95698.66;;;7.96;64.97
44751;BME280;30477;48.224;11.470;2023-02-23T00:41:44;95702.06;;;8.06;64.94
44751;BME280;30477;48.224;11.470;2023-02-23T00:44:10;95699.22;;;8.09;64.80
44751;BME280;30477;48.224;11.470;2023-02-23T00:46:35;95701.41;;;8.04;64.63
44751;BME280;30477;48.224;11.470;2023-02-23T00:49:01;95698.50;;;7.98;64.69
44751;BME280;30477;48.224;11.470;2023-02-23T00:51:28;95694.84;;;7.90;64.69
44751;BME280;30477;48.224;11.470;2023-02-23T00:53:56;95700.00;;;7.90;65.32
44751;BME280;30477;48.224;11.470;2023-02-23T00:56:21;95700.97;;;7.99;65.20
44751;BME280;30477;48.224;11.470;2023-02-23T00:58:47;95696.50;;;8.01;64.94
44751;BME280;30477;48.224;11.470;2023-02-23T01:01:13;95695.13;;;7.97;64.92
44751;BME280;30477;48.224;11.470;2023-02-23T01:03:40;95690.50;;;7.91;65.20
44751;BME280;30477;48.224;11.470;2023-02-23T01:06:07;95692.56;;;7.87;65.58
44751;BME280;30477;48.224;11.470;2023-02-23T01:08:35;95691.34;;;8.01;65.48
44751;BME280;30477;48.224;11.470;2023-02-23T01:11:22;95695.56;;;8.12;65.18
44751;BME280;30477;48.224;11.470;2023-02-23T01:13:51;95700.59;;;8.13;65.19
44751;BME280;30477;48.224;11.470;2023-02-23T01:16:18;95693.94;;;8.11;65.31
44751;BME280;30477;48.224;11.470;2023-02-23T01:18:44;95695.97;;;8.07;65.01
44751;BME280;30477;48.224;11.470;2023-02-23T01:21:38;95692.81;;;7.94;65.13
44751;BME280;30477;48.224;11.470;2023-02-23T01:24:04;95704.59;;;7.77;65.40
44751;BME280;30477;48.224;11.470;2023-02-23T01:26:32;95695.34;;;7.75;65.53
44751;BME280;30477;48.224;11.470;2023-02-23T01:29:06;95691.78;;;7.66;66.10
44751;BME280;30477;48.224;11.470;2023-02-23T01:31:38;95703.88;;;7.65;66.16
44751;BME280;30477;48.224;11.470;2023-02-23T01:34:05;95702.66;;;7.69;66.46
44751;BME280;30477;48.224;11.470;2023-02-23T01:36:35;95685.59;;;7.78;66.37
44751;BME280;30477;48.224;11.470;2023-02-23T01:39:02;95688.88;;;7.90;66.34
44751;BME280;30477;48.224;11.470;2023-02-23T01:41:30;95691.88;;;7.85;66.03
44751;BME280;30477;48.224;11.470;2023-02-23T01:44:05;95683.56;;;7.82;66.23
44751;BME280;30477;48.224;11.470;2023-02-23T01:46:33;95686.41;;;7.79;66.37
44751;BME280;30477;48.224;11.470;2023-02-23T01:48:59;95688.72;;;7.82;66.72
44751;BME280;30477;48.224;11.470;2023-02-23T01:51:27;95695.66;;;7.91;66.53
44751;BME280;30477;48.224;11.470;2023-02-23T01:54:01;95689.97;;;7.97;66.35
44751;BME280;30477;48.224;11.470;2023-02-23T01:56:31;95692.31;;;8.00;66.26
44751;BME280;30477;48.224;11.470;2023-02-23T01:58:59;95688.34;;;7.96;66.34
44751;BME280;30477;48.224;11.470;2023-02-23T02:01:27;95688.88;;;7.90;66.29
44751;BME280;30477;48.224;11.470;2023-02-23T02:03:56;95690.09;;;7.86;66.40
44751;BME280;30477;48.224;11.470;2023-02-23T02:06:24;95683.84;;;7.88;66.40
44751;BME280;30477;48.224;11.470;2023-02-23T02:08:55;95678.28;;;7.93;66.32
44751;BME280;30477;48.224;11.470;2023-02-23T02:11:22;95681.00;;;7.82;66.40
44751;BME280;30477;48.224;11.470;2023-02-23T02:17:01;95681.00;;;7.91;66.74
44751;BME280;30477;48.224;11.470;2023-02-23T02:22:37;95678.72;;;7.98;66.42
44751;BME280;30477;48.224;11.470;2023-02-23T02:33:14;95659.84;;;7.78;67.40
44751;BME280;30477;48.224;11.470;2023-02-23T02:38:28;95658.91;;;7.89;67.31
44751;BME280;30477;48.224;11.470;2023-02-23T02:41:05;95654.97;;;7.95;66.76
44751;BME280;30477;48.224;11.470;2023-02-23T02:46:26;95654.72;;;7.88;66.83
44751;BME280;30477;48.224;11.470;2023-02-23T02:51:50;95652.91;;;7.79;66.57
44751;BME280;30477;48.224;11.470;2023-02-23T02:54:40;95653.56;;;7.61;67.11
44751;BME280;30477;48.224;11.470;2023-02-23T02:57:09;95655.03;;;7.54;67.43
44751;BME280;30477;48.224;11.470;2023-02-23T02:59:47;95655.03;;;7.54;67.46
44751;BME280;30477;48.224;11.470;2023-02-23T03:02:36;95659.22;;;7.55;67.75
44751;BME280;30477;48.224;11.470;2023-02-23T03:08:24;95658.66;;;7.51;67.97
44751;BME280;30477;48.224;11.470;2023-02-23T03:11:12;95656.53;;;7.57;67.79
44751;BME280;30477;48.224;11.470;2023-02-23T03:14:28;95665.06;;;7.57;68.02
44751;BME280;30477;48.224;11.470;2023-02-23T03:22:57;95663.91;;;7.81;67.33
44751;BME280;30477;48.224;11.470;2023-02-23T03:28:48;95672.78;;;7.57;67.26
44751;BME280;30477;48.224;11.470;2023-02-23T03:31:52;95668.28;;;7.49;67.67
44751;BME280;30477;48.224;11.470;2023-02-23T03:34:45;95666.28;;;7.53;67.89
44751;BME280;30477;48.224;11.470;2023-02-23T03:37:37;95671.00;;;7.48;67.62
44751;BME280;30477;48.224;11.470;2023-02-23T03:40:25;95677.38;;;7.44;67.87
44751;BME280;30477;48.224;11.470;2023-02-23T03:43:16;95669.47;;;7.36;68.09
44751;BME280;30477;48.224;11.470;2023-02-23T03:46:02;95677.09;;;7.47;68.24
44751;BME280;30477;48.224;11.470;2023-02-23T03:48:48;95680.63;;;7.46;68.12
44751;BME280;30477;48.224;11.470;2023-02-23T03:51:36;95684.25;;;7.34;68.06
44751;BME280;30477;48.224;11.470;2023-02-23T03:54:43;95679.50;;;7.39;68.49
44751;BME280;30477;48.224;11.470;2023-02-23T03:57:30;95678.91;;;7.25;68.25
44751;BME280;30477;48.224;11.470;2023-02-23T04:00:21;95677.81;;;7.18;68.71
44751;BME280;30477;48.224;11.470;2023-02-23T04:03:08;95680.81;;;7.23;69.12
44751;BME280;30477;48.224;11.470;2023-02-23T04:05:56;95681.66;;;7.34;69.05
44751;BME280;30477;48.224;11.470;2023-02-23T04:08:40;95683.03;;;7.38;68.56
44751;BME280;30477;48.224;11.470;2023-02-23T04:11:46;95688.75;;;7.41;68.74
44751;BME280;30477;48.224;11.470;2023-02-23T04:14:47;95685.72;;;7.36;68.51
44751;BME280;30477;48.224;11.470;2023-02-23T04:17:15;95683.53;;;7.31;68.72
44751;BME280;30477;48.224;11.470;2023-02-23T04:19:51;95684.88;;;7.26;68.74
44751;BME280;30477;48.224;11.470;2023-02-23T04:22:17;95692.19;;;7.30;68.70
44751;BME280;30477;48.224;11.470;2023-02-23T04:24:43;95685.44;;;7.29;69.00
44751;BME280;30477;48.224;11.470;2023-02-23T04:27:10;95682.88;;;7.29;68.70
44751;BME280;30477;48.224;11.470;2023-02-23T04:29:35;95678.91;;;7.25;68.98
44751;BME280;30477;48.224;11.470;2023-02-23T04:32:01;95677.72;;;7.29;69.14
44751;BME280;30477;48.224;11.470;2023-02-23T04:34:26;95679.16;;;7.22;69.01
44751;BME280;30477;48.224;11.470;2023-02-23T04:36:51;95683.19;;;7.15;69.13
44751;BME280;30477;48.224;11.470;2023-02-23T04:39:17;95678.16;;;7.14;69.21
44751;BME280;30477;48.224;11.470;2023-02-23T04:41:42;95678.06;;;7.15;69.41
44751;BME280;30477;48.224;11.470;2023-02-23T04:44:07;95679.69;;;7.16;69.33
44751;BME280;30477;48.224;11.470;2023-02-23T04:46:33;95682.97;;;7.18;69.31
44751;BME280;30477;48.224;11.470;2023-02-23T04:48:58;95684.31;;;7.22;69.34
44751;BME280;30477;48.224;11.470;2023-02-23T04:51:23;95680.53;;;7.26;69.22
44751;BME280;30477;48.224;11.470;2023-02-23T04:53:54;95689.44;;;7.22;69.02
44751;BME280;30477;48.224;11.470;2023-02-23T04:56:20;95691.09;;;7.23;69.06
44751;BME280;30477;48.224;11.470;2023-02-23T04:58:45;95693.25;;;7.18;68.91
44751;BME280;30477;48.224;11.470;2023-02-23T05:01:10;95694.44;;;7.14;68.77
44751;BME280;30477;48.224;11.470;2023-02-23T05:03:36;95690.63;;;7.08;68.85
44751;BME280;30477;48.224;11.470;2023-02-23T05:06:01;95691.00;;;7.04;68.91
44751;BME280;30477;48.224;11.470;2023-02-23T05:08:27;95695.69;;;6.99;68.82
44751;BME280;30477;48.224;11.470;2023-02-23T05:10:52;95695.47;;;7.02;68.84
44751;BME280;30477;48.224;11.470;2023-02-23T05:13:17;95699.41;;;7.06;68.86
44751;BME280;30477;48.224;11.470;2023-02-23T05:15:43;95695.06;;;7.06;68.66
44751;BME280;30477;48.224;11.470;2023-02-23T05:18:08;95690.50;;;7.10;68.79
44751;BME280;30477;48.224;11.470;2023-02-23T05:20:34;95688.16;;;7.07;68.79
44751;BME280;30477;48.224;11.470;2023-02-23T05:23:00;95688.97;;;7.07;69.26
44751;BME280;30477;48.224;11.470;2023-02-23T05:25:25;95694.97;;;7.08;68.98
44751;BME280;30477;48.224;11.470;2023-02-23T05:27:50;95687.25;;;7.08;68.92
44751;BME280;30477;48.224;11.470;2023-02-23T05:30:16;95693.88;;;7.10;68.89
44751;BME280;30477;48.224;11.470;2023-02-23T05:32:41;95692.13;;;7.11;68.94
44751;BME280;30477;48.224;11.470;2023-02-23T05:35:07;95698.06;;;7.11;69.00
44751;BME280;30477;48.224;11.470;2023-02-23T05:37:33;95697.38;;;7.09;68.81
44751;BME280;30477;48.224;11.470;2023-02-23T05:39:58;95702.03;;;7.16;69.12
44751;BME280;30477;48.224;11.470;2023-02-23T05:42:24;95701.91;;;7.17;69.19
44751;BME280;30477;48.224;11.470;2023-02-23T05:44:49;95704.06;;;7.12;68.93
44751;BME280;30477;48.224;11.470;2023-02-23T05:47:15;95704.59;;;7.16;69.27
44751;BME280;30477;48.224;11.470;2023-02-23T05:49:40;95706.53;;;7.23;69.22
44751;BME280;30477;48.224;11.470;2023-02-23T05:52:05;95701.38;;;7.23;69.39
44751;BME280;30477;48.224;11.470;2023-02-23T05:54:31;95706.84;;;7.30;69.38
44751;BME280;30477;48.224;11.470;2023-02-23T05:56:56;95704.44;;;7.38;69.25
44751;BME280;30477;48.224;11.470;2023-02-23T05:59:21;95704.44;;;7.38;69.33
44751;BME280;30477;48.224;11.470;2023-02-23T06:01:47;95706.63;;;7.43;69.20
44751;BME280;30477;48.224;11.470;2023-02-23T06:04:12;95705.25;;;7.39;69.18
44751;BME280;30477;48.224;11.470;2023-02-23T06:06:38;95710.28;;;7.40;69.29
44751;BME280;30477;48.224;11.470;2023-02-23T06:09:04;95705.28;;;7.48;69.18
44751;BME280;30477;48.224;11.470;2023-02-23T06:11:29;95707.47;;;7.53;69.33
44751;BME280;30477;48.224;11.470;2023-02-23T06:13:58;95708.84;;;7.57;69.10
44751;BME280;30477;48.224;11.470;2023-02-23T06:16:24;95709.13;;;7.54;69.17
44751;BME280;30477;48.224;11.470;2023-02-23T06:18:49;95709.13;;;7.54;69.37
44751;BME280;30477;48.224;11.470;2023-02-23T06:21:14;95721.84;;;7.56;69.00
44751;BME280;30477;48.224;11.470;2023-02-23T06:23:40;95718.91;;;7.60;69.42
44751;BME280;30477;48.224;11.470;2023-02-23T06:26:06;95721.34;;;7.62;69.22
44751;BME280;30477;48.224;11.470;2023-02-23T06:28:32;95727.72;;;7.67;69.19
44751;BME280;30477;48.224;11.470;2023-02-23T06:30:58;95723.00;;;7.72;69.15
44751;BME280;30477;48.224;11.470;2023-02-23T06:33:23;95730.34;;;7.77;69.08
44751;BME280;30477;48.224;11.470;2023-02-23T06:35:49;95730.34;;;7.77;68.83
44751;BME280;30477;48.224;11.470;2023-02-23T06:38:15;95729.38;;;7.78;69.02
44751;BME280;30477;48.224;11.470;2023-02-23T06:40:41;95731.16;;;7.78;68.70
44751;BME280;30477;48.224;11.470;2023-02-23T06:43:07;95728.47;;;7.79;68.79
44751;BME280;30477;48.224;11.470;2023-02-23T06:45:32;95735.34;;;7.79;68.74
44751;BME280;30477;48.224;11.470;2023-02-23T06:47:58;95735.91;;;7.82;68.86
44751;BME280;30477;48.224;11.470;2023-02-23T06:50:25;95735.78;;;7.84;68.70
44751;BME280;30477;48.224;11.470;2023-02-23T06:52:51;95735.78;;;7.84;68.82
44751;BME280;30477;48.224;11.470;2023-02-23T06:55:16;95741.75;;;7.84;68.56
44751;BME280;30477;48.224;11.470;2023-02-23T06:57:42;95744.72;;;7.80;68.81
44751;BME280;30477;48.224;11.470;2023-02-23T07:00:09;95740.94;;;7.84;68.60
44751;BME280;30477;48.224;11.470;2023-02-23T07:02:35;95738.09;;;7.87;68.68
44751;BME280;30477;48.224;11.470;2023-02-23T07:05:02;95745.00;;;7.86;68.54
44751;BME280;30477;48.224;11.470;2023-02-23T07:07:27;95750.03;;;7.88;68.43
44751;BME280;30477;48.224;11.470;2023-02-23T07:09:52;95749.09;;;7.89;68.55
44751;BME280;30477;48.224;11.470;2023-02-23T07:12:18;95754.00;;;7.92;68.70
44751;BME280;30477;48.224;11.470;2023-02-23T07:14:43;95753.72;;;7.95;68.43
44751;BME280;30477;48.224;11.470;2023-02-23T07:17:09;95757.78;;;7.98;68.64
44751;BME280;30477;48.224;11.470;2023-02-23T07:19:34;95754.28;;;7.99;68.55
44751;BME280;30477;48.224;11.470;2023-02-23T07:21:59;95759.44;;;7.99;68.62
44751;BME280;30477;48.224;11.470;2023-02-23T07:24:25;95752.50;;;7.99;68.82
44751;BME280;30477;48.224;11.470;2023-02-23T07:26:52;95754.31;;;8.08;68.68
44751;BME280;30477;48.224;11.470;2023-02-23T07:29:17;95757.53;;;8.10;68.46
44751;BME280;30477;48.224;11.470;2023-02-23T07:31:43;95752.38;;;8.10;68.35
44751;BME280;30477;48.224;11.470;2023-02-23T07:34:09;95748.88;;;8.11;68.30
44751;BME280;30477;48.224;11.470;2023-02-23T07:36:34;95747.78;;;8.14;68.48
44751;BME280;30477;48.224;11.470;2023-02-23T07:39:00;95753.91;;;8.13;68.47
44751;BME280;30477;48.224;11.470;2023-02-23T07:41:26;95745.78;;;8.18;68.58
44751;BME280;30477;48.224;11.470;2023-02-23T07:43:51;95746.03;;;8.14;68.59
44751;BME280;30477;48.224;11.470;2023-02-23T07:46:17;95756.22;;;8.06;68.40
44751;BME280;30477;48.224;11.470;2023-02-23T07:48:43;95757.41;;;8.02;68.80
44751;BME280;30477;48.224;11.470;2023-02-23T07:51:12;95746.31;;;8.11;68.71
44751;BME280;30477;48.224;11.470;2023-02-23T07:53:39;95754.03;;;8.11;68.95
44751;BME280;30477;48.224;11.470;2023-02-23T07:56:05;95753.63;;;8.16;68.99
44751;BME280;30477;48.224;11.470;2023-02-23T07:58:31;95760.03;;;8.22;69.18
44751;BME280;30477;48.224;11.470;2023-02-23T08:00:56;95758.13;;;8.33;69.19
44751;BME280;30477;48.224;11.470;2023-02-23T08:03:22;95754.94;;;8.41;69.10
44751;BME280;30477;48.224;11.470;2023-02-23T08:05:47;95760.22;;;8.49;68.95
44751;BME280;30477;48.224;11.470;2023-02-23T08:08:13;95753.56;;;8.57;68.76
44751;BME280;30477;48.224;11.470;2023-02-23T08:10:38;95752.34;;;8.61;68.74
44751;BME280;30477;48.224;11.470;2023-02-23T08:13:04;95760.94;;;8.61;68.91
44751;BME280;30477;48.224;11.470;2023-02-23T08:15:29;95754.69;;;8.64;68.78
44751;BME280;30477;48.224;11.470;2023-02-23T08:17:56;95762.44;;;8.73;68.98
44751;BME280;30477;48.224;11.470;2023-02-23T08:20:22;95761.47;;;8.74;68.79
44751;BME280;30477;48.224;11.470;2023-02-23T08:22:54;95760.63;;;8.84;68.64
44751;BME280;30477;48.224;11.470;2023-02-23T08:25:20;95763.50;;;8.90;68.49
44751;BME280;30477;48.224;11.470;2023-02-23T08:27:46;95763.91;;;8.96;68.69
44751;BME280;30477;48.224;11.470;2023-02-23T08:30:13;95756.53;;;9.01;68.65
44751;BME280;30477;48.224;11.470;2023-02-23T08:32:39;95760.09;;;9.00;68.58
44751;BME280;30477;48.224;11.470;2023-02-23T08:35:05;95757.50;;;9.00;69.06
44751;BME280;30477;48.224;11.470;2023-02-23T08:37:32;95755.47;;;9.03;68.88
44751;BME280;30477;48.224;11.470;2023-02-23T08:39:57;95759.38;;;9.17;69.04
44751;BME280;30477;48.224;11.470;2023-02-23T08:42:25;95761.41;;;9.33;69.04
44751;BME280;30477;48.224;11.470;2023-02-23T08:44:50;95760.19;;;9.27;68.80
44751;BME280;30477;48.224;11.470;2023-02-23T08:47:16;95761.09;;;9.36;68.91
44751;BME280;30477;48.224;11.470;2023-02-23T08:49:46;95755.94;;;9.46;68.90
44751;BME280;30477;48.224;11.470;2023-02-23T08:52:11;95755.94;;;9.46;68.82
44751;BME280;30477;48.224;11.470;2023-02-23T08:54:36;95751.81;;;9.53;68.93
44751;BME280;30477;48.224;11.470;2023-02-23T08:57:02;95754.13;;;9.56;68.96
44751;BME280;30477;48.224;11.470;2023-02-23T08:59:27;95754.00;;;9.48;68.90
44751;BME280;30477;48.224;11.470;2023-02-23T09:01:52;95757.53;;;9.47;68.97
44751;BME280;30477;48.224;11.470;2023-02-23T09:04:18;95758.06;;;9.50;69.09
44751;BME280;30477;48.224;11.470;2023-02-23T09:06:44;95756.31;;;9.51;68.66
44751;BME280;30477;48.224;11.470;2023-02-23T09:09:12;95759.09;;;9.67;68.85
44751;BME280;30477;48.224;11.470;2023-02-23T09:11:37;95756.63;;;9.75;68.97
44751;BME280;30477;48.224;11.470;2023-02-23T09:14:02;95751.94;;;9.89;68.92
44751;BME280;30477;48.224;11.470;2023-02-23T09:16:28;95760.09;;;9.94;69.01
44751;BME280;30477;48.224;11.470;2023-02-23T09:18:53;95756.25;;;9.98;68.79
44751;BME280;30477;48.224;11.470;2023-02-23T09:21:20;95760.88;;;10.04;68.79
44751;BME280;30477;48.224;11.470;2023-02-23T09:23:49;95764.38;;;10.03;68.59
44751;BME280;30477;48.224;11.470;2023-02-23T09:26:16;95762.78;;;10.02;68.90
44751;BME280;30477;48.224;11.470;2023-02-23T09:28:43;95755.19;;;9.91;69.10
44751;BME280;30477;48.224;11.470;2023-02-23T09:31:10;95764.59;;;9.92;69.17
44751;BME280;30477;48.224;11.470;2023-02-23T09:33:36;95764.03;;;9.98;69.24
44751;BME280;30477;48.224;11.470;2023-02-23T09:36:10;95760.72;;;10.06;69.43
44751;BME280;30477;48.224;11.470;2023-02-23T09:38:38;95759.41;;;10.20;69.21
44751;BME280;30477;48.224;11.470;2023-02-23T09:46:50;95762.31;;;10.16;68.67
44751;BME280;30477;48.224;11.470;2023-02-23T09:49:22;95771.75;;;10.26;69.08
44751;BME280;30477;48.224;11.470;2023-02-23T09:51:52;95771.84;;;10.44;69.01
44751;BME280;30477;48.224;11.470;2023-02-23T09:54:23;95772.19;;;10.49;68.55
44751;BME280;30477;48.224;11.470;2023-02-23T09:56:51;95781.53;;;10.60;68.42
44751;BME280;30477;48.224;11.470;2023-02-23T09:59:19;95775.41;;;10.61;68.20
44751;BME280;30477;48.224;11.470;2023-02-23T10:01:56;95771.97;;;10.42;68.10
44751;BME280;30477;48.224;11.470;2023-02-23T10:04:30;95774.84;;;10.39;68.29
44751;BME280;30477;48.224;11.470;2023-02-23T10:07:01;95777.22;;;10.50;68.28
44751;BME280;30477;48.224;11.470;2023-02-23T10:09:51;95771.75;;;10.53;68.04
44751;BME280;30477;48.224;11.470;2023-02-23T10:12:37;95773.09;;;10.57;68.09
44751;BME280;30477;48.224;11.470;2023-02-23T10:20:55;95768.22;;;10.54;68.03
44751;BME280;30477;48.224;11.470;2023-02-23T10:23:26;95772.81;;;10.61;68.08
44751;BME280;30477;48.224;11.470;2023-02-23T10:25:56;95778.78;;;10.61;67.73
44751;BME280;30477;48.224;11.470;2023-02-23T10:28:24;95776.72;;;10.65;67.62
44751;BME280;30477;48.224;11.470;2023-02-23T10:30:51;95775.38;;;10.79;67.44
44751;BME280;30477;48.224;11.470;2023-02-23T10:33:27;95785.53;;;10.72;67.36
44751;BME280;30477;48.224;11.470;2023-02-23T10:36:45;95777.69;;;10.82;67.54
44751;BME280;30477;48.224;11.470;2023-02-23T10:38:45;95776.88;;;10.63;66.90
44751;BME280;30477;48.224;11.470;2023-02-23T10:41:11;95774.72;;;10.59;67.28
44751;BME280;30477;48.224;11.470;2023-02-23T10:43:37;95774.72;;;10.59;67.64
44751;BME280;30477;48.224;11.470;2023-02-23T10:46:03;95778.78;;;10.61;67.42
44751;BME280;30477;48.224;11.470;2023-02-23T10:48:36;95772.81;;;10.61;67.67
44751;BME280;30477;48.224;11.470;2023-02-23T10:51:17;95781.59;;;10.68;67.91
44751;BME280;30477;48.224;11.470;2023-02-23T10:53:44;95777.91;;;10.70;67.22
44751;BME280;30477;48.224;11.470;2023-02-23T10:56:14;95775.22;;;10.62;67.58
44751;BME280;30477;48.224;11.470;2023-02-23T11:01:08;95769.47;;;10.50;67.83
44751;BME280;30477;48.224;11.470;2023-02-23T11:03:41;95779.97;;;10.49;68.09
44751;BME280;30477;48.224;11.470;2023-02-23T11:06:26;95778.00;;;10.61;68.05
44751;BME280;30477;48.224;11.470;2023-02-23T11:08:52;95777.22;;;10.68;68.34
44751;BME280;30477;48.224;11.470;2023-02-23T11:11:22;95772.13;;;10.76;68.11
44751;BME280;30477;48.224;11.470;2023-02-23T11:13:50;95767.41;;;10.72;67.79
44751;BME280;30477;48.224;11.470;2023-02-23T11:16:21;95764.09;;;10.80;67.74
44751;BME280;30477;48.224;11.470;2023-02-23T11:18:56;95762.72;;;10.93;67.83
44751;BME280;30477;48.224;11.470;2023-02-23T11:21:28;95766.47;;;11.17;68.08
44751;BME280;30477;48.224;11.470;2023-02-23T11:23:59;95763.66;;;11.28;67.62
44751;BME280;30477;48.224;11.470;2023-02-23T11:29:00;95751.09;;;11.42;67.47
44751;BME280;30477;48.224;11.470;2023-02-23T11:31:31;95752.41;;;11.46;66.80
44751;BME280;30477;48.224;11.470;2023-02-23T11:33:59;95752.34;;;11.37;66.73
44751;BME280;30477;48.224;11.470;2023-02-23T11:36:35;95746.84;;;11.32;66.97
44751;BME280;30477;48.224;11.470;2023-02-23T11:39:19;95748.16;;;11.36;66.78
44751;BME280;30477;48.224;11.470;2023-02-23T11:41:46;95742.88;;;11.20;66.76
44751;BME280;30477;48.224;11.470;2023-02-23T11:44:27;95737.88;;;11.01;66.73
44751;BME280;30477;48.224;11.470;2023-02-23T11:46:52;95741.63;;;11.06;67.39
44751;BME280;30477;48.224;11.470;2023-02-23T11:49:32;95738.88;;;11.08;67.24
44751;BME280;30477;48.224;11.470;2023-02-23T11:52:00;95728.91;;;11.13;67.43
44751;BME280;30477;48.224;11.470;2023-02-23T11:54:31;95731.09;;;11.26;67.18
44751;BME280;30477;48.224;11.470;2023-02-23T11:57:00;95722.06;;;11.30;67.17
44751;BME280;30477;48.224;11.470;2023-02-23T11:59:32;95720.31;;;11.38;66.47
44751;BME280;30477;48.224;11.470;2023-02-23T12:02:20;95710.56;;;11.32;67.03
44751;BME280;30477;48.224;11.470;2023-02-23T12:04:49;95717.88;;;11.37;67.03
44751;BME280;30477;48.224;11.470;2023-02-23T12:15:26;95704.44;;;11.42;65.24
44751;BME280;30477;48.224;11.470;2023-02-23T12:17:57;95709.44;;;11.35;64.97
44751;BME280;30477;48.224;11.470;2023-02-23T12:20:30;95708.91;;;11.31;65.32
44751;BME280;30477;48.224;11.470;2023-02-23T12:23:08;95704.75;;;11.38;64.75
44751;BME280;30477;48.224;11.470;2023-02-23T12:25:56;95697.75;;;11.31;64.57
44751;BME280;30477;48.224;11.470;2023-02-23T12:28:31;95698.22;;;11.26;65.43
44751;BME280;30477;48.224;11.470;2023-02-23T12:34:07;95699.88;;;11.35;65.54
44751;BME280;30477;48.224;11.470;2023-02-23T12:36:42;95697.75;;;11.31;65.50
44751;BME280;30477;48.224;11.470;2023-02-23T12:39:30;95693.50;;;11.22;65.35
44751;BME280;30477;48.224;11.470;2023-02-23T12:42:22;95701.69;;;11.17;65.87
44751;BME280;30477;48.224;11.470;2023-02-23T12:44:55;95694.69;;;11.35;66.20
44751;BME280;30477;48.224;11.470;2023-02-23T12:47:33;95692.84;;;11.54;66.05
44751;BME280;30477;48.224;11.470;2023-02-23T12:50:21;95689.59;;;11.52;65.58
44751;BME280;30477;48.224;11.470;2023-02-23T12:52:53;95693.00;;;11.52;65.49
44751;BME280;30477;48.224;11.470;2023-02-23T12:57:57;95689.50;;;11.62;64.79
44751;BME280;30477;48.224;11.470;2023-02-23T13:06:28;95685.44;;;11.59;63.90
44751;BME280;30477;48.224;11.470;2023-02-23T13:11:51;95673.44;;;11.58;63.22
44751;BME280;30477;48.224;11.470;2023-02-23T13:17:11;95675.25;;;11.66;63.10
44751;BME280;30477;48.224;11.470;2023-02-23T13:19:47;95670.25;;;11.72;62.97
44751;BME280;30477;48.224;11.470;2023-02-23T13:24:42;95676.06;;;11.66;62.76
44751;BME280;30477;48.224;11.470;2023-02-23T13:27:14;95666.22;;;11.78;62.63
44751;BME280;30477;48.224;11.470;2023-02-23T13:29:44;95675.53;;;11.89;62.67
44751;BME280;30477;48.224;11.470;2023-02-23T13:32:21;95668.44;;;11.99;62.40
44751;BME280;30477;48.224;11.470;2023-02-23T13:37:15;95662.25;;;12.00;62.03
44751;BME280;30477;48.224;11.470;2023-02-23T13:48:19;95657.13;;;11.82;61.29
44751;BME280;30477;48.224;11.470;2023-02-23T13:54:32;95651.44;;;11.70;61.61
44751;BME280;30477;48.224;11.470;2023-02-23T13:56:42;95660.84;;;11.79;61.65
44751;BME280;30477;48.224;11.470;2023-02-23T13:59:18;95658.94;;;11.82;61.25
44751;BME280;30477;48.224;11.470;2023-02-23T14:01:46;95665.06;;;11.72;61.51
44751;BME280;30477;48.224;11.470;2023-02-23T14:04:25;95655.81;;;11.70;61.59
44751;BME280;30477;48.224;11.470;2023-02-23T14:07:10;95649.00;;;11.69;61.67
44751;BME280;30477;48.224;11.470;2023-02-23T14:09:57;95645.47;;;11.70;62.13
44751;BME280;30477;48.224;11.470;2023-02-23T14:12:37;95657.59;;;11.69;61.82
44751;BME280;30477;48.224;11.470;2023-02-23T14:18:01;95657.22;;;11.56;62.12
44751;BME280;30477;48.224;11.470;2023-02-23T14:20:43;95655.66;;;11.71;62.25
44751;BME280;30477;48.224;11.470;2023-02-23T14:47:20;95649.41;;;11.90;61.22
44751;BME280;30477;48.224;11.470;2023-02-23T14:49:49;95642.56;;;11.81;61.45
44751;BME280;30477;48.224;11.470;2023-02-23T14:52:28;95649.84;;;11.77;61.53
44751;BME280;30477;48.224;11.470;2023-02-23T14:57:42;95649.00;;;11.69;61.79
44751;BME280;30477;48.224;11.470;2023-02-23T15:00:15;95647.56;;;11.74;62.07
44751;BME280;30477;48.224;11.470;2023-02-23T15:03:08;95648.75;;;11.88;62.16
44751;BME280;30477;48.224;11.470;2023-02-23T15:05:49;95646.31;;;11.87;61.43
44751;BME280;30477;48.224;11.470;2023-02-23T15:08:22;95642.09;;;11.86;61.46
44751;BME280;30477;48.224;11.470;2023-02-23T15:10:51;95646.81;;;11.90;61.37
44751;BME280;30477;48.224;11.470;2023-02-23T15:13:27;95642.41;;;11.83;61.46
44751;BME280;30477;48.224;11.470;2023-02-23T15:15:54;95644.97;;;11.74;61.55
44751;BME280;30477;48.224;11.470;2023-02-23T15:18:25;95638.34;;;11.72;61.83
44751;BME280;30477;48.224;11.470;2023-02-23T15:20:52;95633.16;;;11.72;61.96